sensor_id;sensor_type;location;lat;lon;timestamp;pressure;altitude;pressure_sealevel;temperature;humidity
23261;BME280;11799;47.740;-3.390;2023-04-27T00:02:02;101469.66;;;10.39;100.00
23261;BME280;11799;47.740;-3.390;2023-04-27T00:04:28;101474.28;;;10.36;100.00
23261;BME280;11799;47.740;-3.390;2023-04-27T00:06:53;101466.38;;;10.36;100.00
23261;BME280;11799;47.740;-3.390;2023-04-27T00:09:19;101470.06;;;10.33;100.00
23261;BME280;11799;47.740;-3.390;2023-04-27T00:11:45;101470.06;;;10.33;100.00
23261;BME280;11799;47.740;-3.390;2023-04-27T00:14:10;101473.66;;;10.32;100.00
23261;BME280;11799;47.740;-3.390;2023-04-27T00:16:36;101469.41;;;10.30;100.00
23261;BME280;11799;47.740;-3.390;2023-04-27T00:19:01;101471.31;;;10.28;100.00
23261;BME280;11799;47.740;-3.390;2023-04-27T00:21:27;101458.94;;;10.28;100.00
23261;BME280;11799;47.740;-3.390;2023-04-27T00:23:53;101454.63;;;10.27;100.00
23261;BME280;11799;47.740;-3.390;2023-04-27T00:26:19;101455.56;;;10.26;100.00
23261;BME280;11799;47.740;-3.390;2023-04-27T00:28:48;101444.16;;;10.25;100.00
23261;BME280;11799;47.740;-3.390;2023-04-27T00:31:14;101448.59;;;10.25;100.00
23261;BME280;11799;47.740;-3.390;2023-04-27T00:33:40;101444.38;;;10.22;100.00
23261;BME280;11799;47.740;-3.390;2023-04-27T00:36:06;101445.31;;;10.21;100.00
23261;BME280;11799;47.740;-3.390;2023-04-27T00:38:31;101433.91;;;10.21;100.00
23261;BME280;11799;47.740;-3.390;2023-04-27T00:41:05;101441.94;;;10.19;100.00
23261;BME280;11799;47.740;-3.390;2023-04-27T00:43:32;101440.22;;;10.18;100.00
23261;BME280;11799;47.740;-3.390;2023-04-27T00:45:58;101435.97;;;10.16;100.00
23261;BME280;11799;47.740;-3.390;2023-04-27T00:48:24;101435.22;;;10.14;100.00
23261;BME280;11799;47.740;-3.390;2023-04-27T00:50:50;101428.34;;;10.11;100.00
23261;BME280;11799;47.740;-3.390;2023-04-27T00:53:17;101420.25;;;10.14;100.00
23261;BME280;11799;47.740;-3.390;2023-04-27T00:55:43;101423.94;;;10.12;100.00
23261;BME280;11799;47.740;-3.390;2023-04-27T00:58:09;101425.72;;;10.11;100.00
23261;BME280;11799;47.740;-3.390;2023-04-27T01:00:36;101421.50;;;10.09;100.00
23261;BME280;11799;47.740;-3.390;2023-04-27T01:03:02;101413.69;;;10.07;100.00
23261;BME280;11799;47.740;-3.390;2023-04-27T01:05:29;101405.66;;;10.09;100.00
23261;BME280;11799;47.740;-3.390;2023-04-27T01:07:55;101403.13;;;10.07;100.00
23261;BME280;11799;47.740;-3.390;2023-04-27T01:10:20;101387.69;;;10.01;100.00
23261;BME280;11799;47.740;-3.390;2023-04-27T01:12:46;101402.06;;;10.10;100.00
23261;BME280;11799;47.740;-3.390;2023-04-27T01:15:12;101398.69;;;10.08;100.00
23261;BME280;11799;47.740;-3.390;2023-04-27T01:17:37;101405.75;;;10.07;100.00
23261;BME280;11799;47.740;-3.390;2023-04-27T01:20:03;101398.59;;;10.09;100.00
23261;BME280;11799;47.740;-3.390;2023-04-27T01:22:32;101397.84;;;10.07;100.00
23261;BME280;11799;47.740;-3.390;2023-04-27T01:24:57;101398.47;;;10.11;100.00
23261;BME280;11799;47.740;-3.390;2023-04-27T01:27:23;101395.66;;;10.14;100.00
23261;BME280;11799;47.740;-3.390;2023-04-27T01:29:48;101395.66;;;10.14;100.00
23261;BME280;11799;47.740;-3.390;2023-04-27T01:32:14;101386.78;;;10.15;100.00
23261;BME280;11799;47.740;-3.390;2023-04-27T01:34:40;101379.50;;;10.18;100.00
23261;BME280;11799;47.740;-3.390;2023-04-27T01:37:05;101379.44;;;10.20;100.00
23261;BME280;11799;47.740;-3.390;2023-04-27T01:39:31;101368.03;;;10.19;100.00
23261;BME280;11799;47.740;-3.390;2023-04-27T01:41:57;101374.91;;;10.22;100.00
23261;BME280;11799;47.740;-3.390;2023-04-27T01:44:23;101371.41;;;10.21;100.00
23261;BME280;11799;47.740;-3.390;2023-04-27T01:46:49;101367.81;;;10.22;100.00
23261;BME280;11799;47.740;-3.390;2023-04-27T01:49:15;101360.75;;;10.23;100.00
23261;BME280;11799;47.740;-3.390;2023-04-27T01:51:40;101355.47;;;10.23;100.00
23261;BME280;11799;47.740;-3.390;2023-04-27T01:54:06;101355.38;;;10.24;100.00
23261;BME280;11799;47.740;-3.390;2023-04-27T01:56:32;101362.44;;;10.24;100.00
23261;BME280;11799;47.740;-3.390;2023-04-27T01:58:57;101363.28;;;10.24;100.00
23261;BME280;11799;47.740;-3.390;2023-04-27T02:01:23;101361.50;;;10.25;100.00
23261;BME280;11799;47.740;-3.390;2023-04-27T02:03:48;101360.66;;;10.24;100.00
23261;BME280;11799;47.740;-3.390;2023-04-27T02:06:14;101360.53;;;10.26;100.00
23261;BME280;11799;47.740;-3.390;2023-04-27T02:08:39;101359.69;;;10.25;100.00
23261;BME280;11799;47.740;-3.390;2023-04-27T02:11:07;101352.63;;;10.26;100.00
23261;BME280;11799;47.740;-3.390;2023-04-27T02:13:32;101356.00;;;10.28;100.00
23261;BME280;11799;47.740;-3.390;2023-04-27T02:15:58;101348.94;;;10.29;100.00
23261;BME280;11799;47.740;-3.390;2023-04-27T02:18:26;101350.72;;;10.28;100.00
23261;BME280;11799;47.740;-3.390;2023-04-27T02:20:52;101357.69;;;10.29;100.00
23261;BME280;11799;47.740;-3.390;2023-04-27T02:23:17;101366.34;;;10.31;100.00
23261;BME280;11799;47.740;-3.390;2023-04-27T02:25:43;101369.84;;;10.32;100.00
23261;BME280;11799;47.740;-3.390;2023-04-27T02:28:13;101365.31;;;10.34;100.00
23261;BME280;11799;47.740;-3.390;2023-04-27T02:30:39;101358.13;;;10.36;100.00
23261;BME280;11799;47.740;-3.390;2023-04-27T02:33:05;101352.75;;;10.37;100.00
23261;BME280;11799;47.740;-3.390;2023-04-27T02:35:30;101357.91;;;10.39;100.00
23261;BME280;11799;47.740;-3.390;2023-04-27T02:37:58;101349.84;;;10.40;100.00
23261;BME280;11799;47.740;-3.390;2023-04-27T02:40:24;101339.19;;;10.42;100.00
23261;BME280;11799;47.740;-3.390;2023-04-27T02:42:50;101341.00;;;10.41;100.00
23261;BME280;11799;47.740;-3.390;2023-04-27T02:45:16;101345.22;;;10.44;100.00
23261;BME280;11799;47.740;-3.390;2023-04-27T02:47:41;101355.03;;;10.42;100.00
23261;BME280;11799;47.740;-3.390;2023-04-27T02:50:08;101355.78;;;10.44;100.00
23261;BME280;11799;47.740;-3.390;2023-04-27T02:52:34;101361.25;;;10.41;100.00
23261;BME280;11799;47.740;-3.390;2023-04-27T02:55:00;101368.03;;;10.45;100.00
23261;BME280;11799;47.740;-3.390;2023-04-27T02:57:26;101352.06;;;10.46;100.00
23261;BME280;11799;47.740;-3.390;2023-04-27T02:59:52;101338.97;;;10.45;100.00
23261;BME280;11799;47.740;-3.390;2023-04-27T03:02:18;101345.00;;;10.47;100.00
23261;BME280;11799;47.740;-3.390;2023-04-27T03:04:43;101343.22;;;10.47;100.00
23261;BME280;11799;47.740;-3.390;2023-04-27T03:07:09;101343.09;;;10.49;100.00
23261;BME280;11799;47.740;-3.390;2023-04-27T03:09:36;101343.09;;;10.49;100.00
23261;BME280;11799;47.740;-3.390;2023-04-27T03:12:02;101342.25;;;10.48;100.00
23261;BME280;11799;47.740;-3.390;2023-04-27T03:14:28;101333.50;;;10.48;100.00
23261;BME280;11799;47.740;-3.390;2023-04-27T03:16:53;101315.84;;;10.48;100.00
23261;BME280;11799;47.740;-3.390;2023-04-27T03:19:21;101315.63;;;10.51;100.00
23261;BME280;11799;47.740;-3.390;2023-04-27T03:21:49;101312.16;;;10.51;100.00
23261;BME280;11799;47.740;-3.390;2023-04-27T03:24:14;101305.91;;;10.52;100.00
23261;BME280;11799;47.740;-3.390;2023-04-27T03:26:41;101305.81;;;10.53;100.00
23261;BME280;11799;47.740;-3.390;2023-04-27T03:29:07;101298.94;;;10.51;100.00
23261;BME280;11799;47.740;-3.390;2023-04-27T03:31:32;101285.00;;;10.49;100.00
23261;BME280;11799;47.740;-3.390;2023-04-27T03:33:58;101279.50;;;10.52;100.00
23261;BME280;11799;47.740;-3.390;2023-04-27T03:36:23;101272.53;;;10.51;100.00
23261;BME280;11799;47.740;-3.390;2023-04-27T03:38:49;101272.44;;;10.52;100.00
23261;BME280;11799;47.740;-3.390;2023-04-27T03:41:14;101271.81;;;10.49;100.00
23261;BME280;11799;47.740;-3.390;2023-04-27T03:43:40;101264.84;;;10.48;100.00
23261;BME280;11799;47.740;-3.390;2023-04-27T03:46:05;101263.78;;;10.50;100.00
23261;BME280;11799;47.740;-3.390;2023-04-27T03:48:31;101263.66;;;10.52;100.00
23261;BME280;11799;47.740;-3.390;2023-04-27T03:50:56;101251.19;;;10.54;100.00
23261;BME280;11799;47.740;-3.390;2023-04-27T03:53:22;101265.16;;;10.56;100.00
23261;BME280;11799;47.740;-3.390;2023-04-27T03:55:48;101262.50;;;10.56;100.00
23261;BME280;11799;47.740;-3.390;2023-04-27T03:58:14;101258.06;;;10.56;100.00
23261;BME280;11799;47.740;-3.390;2023-04-27T04:01:06;101249.19;;;10.57;100.00
23261;BME280;11799;47.740;-3.390;2023-04-27T04:03:35;101252.69;;;10.58;100.00
23261;BME280;11799;47.740;-3.390;2023-04-27T04:06:03;101253.63;;;10.57;100.00
23261;BME280;11799;47.740;-3.390;2023-04-27T04:08:29;101260.50;;;10.59;100.00
23261;BME280;11799;47.740;-3.390;2023-04-27T04:10:55;101272.41;;;10.65;100.00
23261;BME280;11799;47.740;-3.390;2023-04-27T04:13:22;101266.28;;;10.65;100.00
23261;BME280;11799;47.740;-3.390;2023-04-27T04:15:47;101259.84;;;10.69;100.00
23261;BME280;11799;47.740;-3.390;2023-04-27T04:18:13;101248.31;;;10.70;100.00
23261;BME280;11799;47.740;-3.390;2023-04-27T04:20:38;101249.06;;;10.72;100.00
23261;BME280;11799;47.740;-3.390;2023-04-27T04:23:04;101234.78;;;10.74;100.00
23261;BME280;11799;47.740;-3.390;2023-04-27T04:25:29;101231.09;;;10.77;100.00
23261;BME280;11799;47.740;-3.390;2023-04-27T04:27:56;101217.75;;;10.78;100.00
23261;BME280;11799;47.740;-3.390;2023-04-27T04:30:22;101203.72;;;10.78;100.00
23261;BME280;11799;47.740;-3.390;2023-04-27T04:32:48;101207.94;;;10.80;100.00
23261;BME280;11799;47.740;-3.390;2023-04-27T04:35:14;101223.66;;;10.82;100.00
23261;BME280;11799;47.740;-3.390;2023-04-27T04:37:42;101213.94;;;10.82;100.00
23261;BME280;11799;47.740;-3.390;2023-04-27T04:40:08;101202.66;;;10.80;100.00
23261;BME280;11799;47.740;-3.390;2023-04-27T04:42:35;101198.31;;;10.79;100.00
23261;BME280;11799;47.740;-3.390;2023-04-27T04:45:02;101213.09;;;10.82;100.00
23261;BME280;11799;47.740;-3.390;2023-04-27T04:47:28;101203.50;;;10.81;100.00
23261;BME280;11799;47.740;-3.390;2023-04-27T04:49:56;101208.56;;;10.84;100.00
23261;BME280;11799;47.740;-3.390;2023-04-27T04:52:22;101210.34;;;10.83;100.00
23261;BME280;11799;47.740;-3.390;2023-04-27T04:54:51;101209.28;;;10.86;100.00
23261;BME280;11799;47.740;-3.390;2023-04-27T04:57:17;101205.69;;;10.87;100.00
23261;BME280;11799;47.740;-3.390;2023-04-27T04:59:43;101204.72;;;10.88;100.00
23261;BME280;11799;47.740;-3.390;2023-04-27T05:02:10;101204.63;;;10.89;100.00
23261;BME280;11799;47.740;-3.390;2023-04-27T05:04:35;101202.72;;;10.91;100.00
23261;BME280;11799;47.740;-3.390;2023-04-27T05:07:01;101203.44;;;10.94;100.00
23261;BME280;11799;47.740;-3.390;2023-04-27T05:09:27;101208.63;;;10.95;100.00
23261;BME280;11799;47.740;-3.390;2023-04-27T05:11:52;101213.78;;;10.97;100.00
23261;BME280;11799;47.740;-3.390;2023-04-27T05:14:18;101207.41;;;10.99;100.00
23261;BME280;11799;47.740;-3.390;2023-04-27T05:16:43;101209.81;;;11.02;100.00
23261;BME280;11799;47.740;-3.390;2023-04-27T05:19:09;101210.66;;;11.03;100.00
23261;BME280;11799;47.740;-3.390;2023-04-27T05:21:34;101214.88;;;11.05;100.00
23261;BME280;11799;47.740;-3.390;2023-04-27T05:24:00;101212.13;;;11.07;100.00
23261;BME280;11799;47.740;-3.390;2023-04-27T05:26:26;101214.66;;;11.08;100.00
23261;BME280;11799;47.740;-3.390;2023-04-27T05:28:51;101213.59;;;11.11;100.00
23261;BME280;11799;47.740;-3.390;2023-04-27T05:31:17;101216.97;;;11.13;100.00
23261;BME280;11799;47.740;-3.390;2023-04-27T05:33:43;101221.06;;;11.17;100.00
23261;BME280;11799;47.740;-3.390;2023-04-27T05:36:08;101216.53;;;11.19;100.00
23261;BME280;11799;47.740;-3.390;2023-04-27T05:38:34;101213.75;;;11.20;100.00
23261;BME280;11799;47.740;-3.390;2023-04-27T05:41:01;101214.50;;;11.22;100.00
23261;BME280;11799;47.740;-3.390;2023-04-27T05:43:27;101212.25;;;11.29;100.00
23261;BME280;11799;47.740;-3.390;2023-04-27T05:45:52;101212.75;;;11.34;100.00
23261;BME280;11799;47.740;-3.390;2023-04-27T05:48:19;101211.66;;;11.37;100.00
23261;BME280;11799;47.740;-3.390;2023-04-27T05:50:44;101200.97;;;11.38;100.00
23261;BME280;11799;47.740;-3.390;2023-04-27T05:53:10;101204.34;;;11.40;100.00
23261;BME280;11799;47.740;-3.390;2023-04-27T05:55:35;101198.84;;;11.43;100.00
23261;BME280;11799;47.740;-3.390;2023-04-27T05:58:02;101200.41;;;11.46;100.00
23261;BME280;11799;47.740;-3.390;2023-04-27T06:00:28;101195.84;;;11.48;100.00
23261;BME280;11799;47.740;-3.390;2023-04-27T06:02:53;101196.56;;;11.50;100.00
23261;BME280;11799;47.740;-3.390;2023-04-27T06:05:19;101189.47;;;11.50;100.00
23261;BME280;11799;47.740;-3.390;2023-04-27T06:07:46;101195.50;;;11.52;100.00
23261;BME280;11799;47.740;-3.390;2023-04-27T06:10:12;101203.31;;;11.54;100.00
23261;BME280;11799;47.740;-3.390;2023-04-27T06:12:37;101204.16;;;11.54;100.00
23261;BME280;11799;47.740;-3.390;2023-04-27T06:15:04;101211.84;;;11.57;100.00
23261;BME280;11799;47.740;-3.390;2023-04-27T06:17:36;101202.09;;;11.58;100.00
23261;BME280;11799;47.740;-3.390;2023-04-27T06:20:02;101203.91;;;11.57;100.00
23261;BME280;11799;47.740;-3.390;2023-04-27T06:22:31;101197.53;;;11.60;100.00
23261;BME280;11799;47.740;-3.390;2023-04-27T06:24:57;101192.25;;;11.60;100.00
23261;BME280;11799;47.740;-3.390;2023-04-27T06:27:22;101203.44;;;11.64;100.00
23261;BME280;11799;47.740;-3.390;2023-04-27T06:29:48;101199.94;;;11.63;100.00
23261;BME280;11799;47.740;-3.390;2023-04-27T06:32:13;101204.16;;;11.66;100.00
23261;BME280;11799;47.740;-3.390;2023-04-27T06:34:39;101193.47;;;11.67;100.00
23261;BME280;11799;47.740;-3.390;2023-04-27T06:37:06;101194.31;;;11.68;100.00
23261;BME280;11799;47.740;-3.390;2023-04-27T06:39:32;101196.84;;;11.69;100.00
23261;BME280;11799;47.740;-3.390;2023-04-27T06:41:57;101205.59;;;11.70;100.00
23261;BME280;11799;47.740;-3.390;2023-04-27T06:44:24;101200.19;;;11.71;100.00
23261;BME280;11799;47.740;-3.390;2023-04-27T06:46:49;101200.19;;;11.71;100.00
23261;BME280;11799;47.740;-3.390;2023-04-27T06:49:15;101200.31;;;11.70;100.00
23261;BME280;11799;47.740;-3.390;2023-04-27T06:51:41;101208.13;;;11.71;100.00
23261;BME280;11799;47.740;-3.390;2023-04-27T06:54:06;101202.72;;;11.73;100.00
23261;BME280;11799;47.740;-3.390;2023-04-27T06:56:32;101209.72;;;11.74;100.00
23261;BME280;11799;47.740;-3.390;2023-04-27T06:58:58;101211.41;;;11.75;100.00
23261;BME280;11799;47.740;-3.390;2023-04-27T07:01:23;101213.09;;;11.76;100.00
23261;BME280;11799;47.740;-3.390;2023-04-27T07:03:49;101210.22;;;11.79;100.00
23261;BME280;11799;47.740;-3.390;2023-04-27T07:06:15;101213.59;;;11.81;100.00
23261;BME280;11799;47.740;-3.390;2023-04-27T07:08:41;101215.41;;;11.80;100.00
23261;BME280;11799;47.740;-3.390;2023-04-27T07:11:07;101215.19;;;11.83;100.00
23261;BME280;11799;47.740;-3.390;2023-04-27T07:13:33;101221.31;;;11.84;100.00
23261;BME280;11799;47.740;-3.390;2023-04-27T07:15:58;101225.66;;;11.85;100.00
23261;BME280;11799;47.740;-3.390;2023-04-27T07:18:25;101215.78;;;11.87;100.00
23261;BME280;11799;47.740;-3.390;2023-04-27T07:20:53;101218.56;;;11.85;100.00
23261;BME280;11799;47.740;-3.390;2023-04-27T07:23:19;101222.03;;;11.86;100.00
23261;BME280;11799;47.740;-3.390;2023-04-27T07:25:44;101232.63;;;11.86;100.00
23261;BME280;11799;47.740;-3.390;2023-04-27T07:28:11;101218.44;;;11.87;100.00
23261;BME280;11799;47.740;-3.390;2023-04-27T07:30:37;101216.50;;;11.89;100.00
23261;BME280;11799;47.740;-3.390;2023-04-27T07:33:03;101220.00;;;11.89;100.00
23261;BME280;11799;47.740;-3.390;2023-04-27T07:35:29;101211.34;;;11.87;100.00
23261;BME280;11799;47.740;-3.390;2023-04-27T07:37:54;101213.50;;;11.94;100.00
23261;BME280;11799;47.740;-3.390;2023-04-27T07:40:21;101211.59;;;11.96;100.00
23261;BME280;11799;47.740;-3.390;2023-04-27T07:42:48;101209.66;;;11.98;100.00
23261;BME280;11799;47.740;-3.390;2023-04-27T07:45:14;101206.06;;;11.99;100.00
23261;BME280;11799;47.740;-3.390;2023-04-27T07:47:41;101204.97;;;12.01;100.00
23261;BME280;11799;47.740;-3.390;2023-04-27T07:50:09;101195.25;;;12.02;100.00
23261;BME280;11799;47.740;-3.390;2023-04-27T07:52:35;101195.97;;;12.04;100.00
23261;BME280;11799;47.740;-3.390;2023-04-27T07:55:02;101198.25;;;12.08;100.00
23261;BME280;11799;47.740;-3.390;2023-04-27T07:57:28;101186.59;;;12.11;100.00
23261;BME280;11799;47.740;-3.390;2023-04-27T07:59:53;101177.53;;;12.13;100.00
23261;BME280;11799;47.740;-3.390;2023-04-27T08:02:19;101165.00;;;12.15;100.00
23261;BME280;11799;47.740;-3.390;2023-04-27T08:04:45;101173.66;;;12.17;100.00
23261;BME280;11799;47.740;-3.390;2023-04-27T08:07:10;101180.78;;;12.17;100.00
23261;BME280;11799;47.740;-3.390;2023-04-27T08:09:36;101177.16;;;12.18;100.00
23261;BME280;11799;47.740;-3.390;2023-04-27T08:12:02;101182.47;;;12.18;100.00
23261;BME280;11799;47.740;-3.390;2023-04-27T08:14:28;101184.16;;;12.19;100.00
23261;BME280;11799;47.740;-3.390;2023-04-27T08:16:53;101181.63;;;12.17;100.00
23261;BME280;11799;47.740;-3.390;2023-04-27T08:19:19;101172.72;;;12.18;100.00
23261;BME280;11799;47.740;-3.390;2023-04-27T08:21:45;101167.28;;;12.20;100.00
23261;BME280;11799;47.740;-3.390;2023-04-27T08:24:10;101153.44;;;12.16;100.00
23261;BME280;11799;47.740;-3.390;2023-04-27T08:26:36;101168.63;;;12.26;100.00
23261;BME280;11799;47.740;-3.390;2023-04-27T08:29:02;101162.25;;;12.28;100.00
23261;BME280;11799;47.740;-3.390;2023-04-27T08:31:27;101155.50;;;12.24;100.00
23261;BME280;11799;47.740;-3.390;2023-04-27T08:33:54;101155.59;;;12.34;100.00
23261;BME280;11799;47.740;-3.390;2023-04-27T08:36:21;101159.09;;;12.34;100.00
23261;BME280;11799;47.740;-3.390;2023-04-27T08:38:51;101163.91;;;12.40;100.00
23261;BME280;11799;47.740;-3.390;2023-04-27T08:41:20;101168.25;;;12.41;100.00
23261;BME280;11799;47.740;-3.390;2023-04-27T08:43:47;101166.19;;;12.45;100.00
23261;BME280;11799;47.740;-3.390;2023-04-27T08:46:23;101175.69;;;12.47;100.00
23261;BME280;11799;47.740;-3.390;2023-04-27T08:48:52;101173.78;;;12.49;100.00
23261;BME280;11799;47.740;-3.390;2023-04-27T08:51:18;101166.66;;;12.50;100.00
23261;BME280;11799;47.740;-3.390;2023-04-27T08:53:55;101169.06;;;12.53;100.00
23261;BME280;11799;47.740;-3.390;2023-04-27T08:56:23;101183.16;;;12.53;100.00
23261;BME280;11799;47.740;-3.390;2023-04-27T08:58:53;101177.75;;;12.55;100.00
23261;BME280;11799;47.740;-3.390;2023-04-27T09:01:20;101179.06;;;12.61;100.00
23261;BME280;11799;47.740;-3.390;2023-04-27T09:03:46;101170.16;;;12.62;100.00
23261;BME280;11799;47.740;-3.390;2023-04-27T09:06:13;101171.00;;;12.62;100.00
23261;BME280;11799;47.740;-3.390;2023-04-27T09:08:49;101166.53;;;12.63;100.00
23261;BME280;11799;47.740;-3.390;2023-04-27T09:11:37;101173.97;;;12.69;100.00
23261;BME280;11799;47.740;-3.390;2023-04-27T09:14:17;101175.25;;;12.74;100.00
23261;BME280;11799;47.740;-3.390;2023-04-27T09:16:43;101172.38;;;12.77;100.00
23261;BME280;11799;47.740;-3.390;2023-04-27T09:19:09;101170.19;;;12.82;100.00
23261;BME280;11799;47.740;-3.390;2023-04-27T09:21:35;101170.91;;;12.84;100.00
23261;BME280;11799;47.740;-3.390;2023-04-27T09:24:11;101167.16;;;12.87;100.00
23261;BME280;11799;47.740;-3.390;2023-04-27T09:26:38;101166.66;;;12.93;100.00
23261;BME280;11799;47.740;-3.390;2023-04-27T09:29:04;101156.06;;;12.93;100.00
23261;BME280;11799;47.740;-3.390;2023-04-27T09:31:31;101170.13;;;13.05;100.00
23261;BME280;11799;47.740;-3.390;2023-04-27T09:33:57;101176.38;;;13.04;100.00
23261;BME280;11799;47.740;-3.390;2023-04-27T09:36:23;101161.91;;;13.08;100.00
23261;BME280;11799;47.740;-3.390;2023-04-27T09:38:50;101170.56;;;13.10;100.00
23261;BME280;11799;47.740;-3.390;2023-04-27T09:41:17;101176.25;;;13.16;100.00
23261;BME280;11799;47.740;-3.390;2023-04-27T09:43:43;101171.78;;;13.17;100.00
23261;BME280;11799;47.740;-3.390;2023-04-27T09:46:13;101168.16;;;13.18;100.00
23261;BME280;11799;47.740;-3.390;2023-04-27T09:48:39;101173.94;;;13.23;100.00
23261;BME280;11799;47.740;-3.390;2023-04-27T09:51:05;101168.63;;;13.23;100.00
23261;BME280;11799;47.740;-3.390;2023-04-27T09:53:38;101177.03;;;13.28;100.00
23261;BME280;11799;47.740;-3.390;2023-04-27T09:59:01;101169.50;;;13.33;100.00
23261;BME280;11799;47.740;-3.390;2023-04-27T10:01:56;101165.19;;;13.32;100.00
23261;BME280;11799;47.740;-3.390;2023-04-27T10:07:14;101169.19;;;13.47;100.00
23261;BME280;11799;47.740;-3.390;2023-04-27T10:12:19;101165.66;;;13.58;100.00
23261;BME280;11799;47.740;-3.390;2023-04-27T10:14:54;101173.09;;;13.64;100.00
23261;BME280;11799;47.740;-3.390;2023-04-27T10:17:31;101178.72;;;13.71;100.00
23261;BME280;11799;47.740;-3.390;2023-04-27T10:20:02;101180.41;;;13.72;100.00
23261;BME280;11799;47.740;-3.390;2023-04-27T10:22:43;101190.31;;;13.70;100.00
23261;BME280;11799;47.740;-3.390;2023-04-27T10:28:00;101172.69;;;13.69;100.00
23261;BME280;11799;47.740;-3.390;2023-04-27T10:30:36;101174.13;;;13.73;100.00
23261;BME280;11799;47.740;-3.390;2023-04-27T10:33:09;101167.13;;;13.72;100.00
23261;BME280;11799;47.740;-3.390;2023-04-27T10:35:43;101174.13;;;13.73;100.00
23261;BME280;11799;47.740;-3.390;2023-04-27T10:38:17;101180.97;;;13.75;100.00
23261;BME280;11799;47.740;-3.390;2023-04-27T10:41:03;101182.41;;;13.79;100.00
23261;BME280;11799;47.740;-3.390;2023-04-27T10:43:32;101178.50;;;13.83;100.00
23261;BME280;11799;47.740;-3.390;2023-04-27T10:46:12;101174.31;;;13.91;100.00
23261;BME280;11799;47.740;-3.390;2023-04-27T10:48:42;101161.91;;;13.91;100.00
23261;BME280;11799;47.740;-3.390;2023-04-27T10:51:08;101155.94;;;13.99;100.00
23261;BME280;11799;47.740;-3.390;2023-04-27T10:53:34;101153.13;;;14.00;100.00
23261;BME280;11799;47.740;-3.390;2023-04-27T10:56:00;101149.78;;;13.98;100.00
23261;BME280;11799;47.740;-3.390;2023-04-27T10:58:27;101163.75;;;14.00;100.00
23261;BME280;11799;47.740;-3.390;2023-04-27T11:00:52;101153.56;;;14.05;100.00
23261;BME280;11799;47.740;-3.390;2023-04-27T11:03:20;101144.09;;;14.12;100.00
23261;BME280;11799;47.740;-3.390;2023-04-27T11:05:47;101140.91;;;14.18;100.00
23261;BME280;11799;47.740;-3.390;2023-04-27T11:08:17;101150.72;;;14.28;100.00
23261;BME280;11799;47.740;-3.390;2023-04-27T11:10:47;101146.13;;;14.30;100.00
23261;BME280;11799;47.740;-3.390;2023-04-27T11:13:24;101145.44;;;14.37;100.00
23261;BME280;11799;47.740;-3.390;2023-04-27T11:15:58;101154.00;;;14.41;100.00
23261;BME280;11799;47.740;-3.390;2023-04-27T11:18:26;101147.41;;;14.35;100.00
23261;BME280;11799;47.740;-3.390;2023-04-27T11:21:05;101138.94;;;14.41;100.00
23261;BME280;11799;47.740;-3.390;2023-04-27T11:23:34;101152.91;;;14.43;100.00
23261;BME280;11799;47.740;-3.390;2023-04-27T11:26:20;101143.13;;;14.44;100.00
23261;BME280;11799;47.740;-3.390;2023-04-27T11:29:00;101146.47;;;14.46;100.00
23261;BME280;11799;47.740;-3.390;2023-04-27T11:31:36;101141.28;;;14.44;100.00
23261;BME280;11799;47.740;-3.390;2023-04-27T11:34:02;101146.59;;;14.44;100.00
23261;BME280;11799;47.740;-3.390;2023-04-27T11:36:28;101134.16;;;14.45;100.00
23261;BME280;11799;47.740;-3.390;2023-04-27T11:38:57;101142.81;;;14.47;100.00
23261;BME280;11799;47.740;-3.390;2023-04-27T11:41:34;101134.72;;;14.48;100.00
23261;BME280;11799;47.740;-3.390;2023-04-27T11:44:04;101137.81;;;14.53;100.00
23261;BME280;11799;47.740;-3.390;2023-04-27T11:46:30;101132.91;;;14.49;100.00
23261;BME280;11799;47.740;-3.390;2023-04-27T11:49:06;101130.81;;;14.52;100.00
23261;BME280;11799;47.740;-3.390;2023-04-27T11:51:33;101141.44;;;14.52;100.00
23261;BME280;11799;47.740;-3.390;2023-04-27T11:54:03;101133.59;;;14.51;100.00
23261;BME280;11799;47.740;-3.390;2023-04-27T11:56:38;101137.53;;;14.57;100.00
23261;BME280;11799;47.740;-3.390;2023-04-27T11:59:04;101133.47;;;14.62;100.00
23261;BME280;11799;47.740;-3.390;2023-04-27T12:01:31;101124.28;;;14.76;100.00
23261;BME280;11799;47.740;-3.390;2023-04-27T12:03:57;101131.56;;;14.83;100.00
23261;BME280;11799;47.740;-3.390;2023-04-27T12:06:24;101122.31;;;14.97;100.00
23261;BME280;11799;47.740;-3.390;2023-04-27T12:08:50;101127.06;;;15.13;100.00
23261;BME280;11799;47.740;-3.390;2023-04-27T12:11:17;101141.75;;;15.17;100.00
23261;BME280;11799;47.740;-3.390;2023-04-27T12:13:42;101141.75;;;15.17;100.00
23261;BME280;11799;47.740;-3.390;2023-04-27T12:16:08;101144.41;;;15.17;100.00
23261;BME280;11799;47.740;-3.390;2023-04-27T12:18:33;101147.91;;;15.17;100.00
23261;BME280;11799;47.740;-3.390;2023-04-27T12:20:59;101153.66;;;15.23;100.00
23261;BME280;11799;47.740;-3.390;2023-04-27T12:23:25;101157.28;;;15.22;100.00
23261;BME280;11799;47.740;-3.390;2023-04-27T12:25:50;101158.28;;;15.20;100.00
23261;BME280;11799;47.740;-3.390;2023-04-27T12:28:16;101158.41;;;15.19;100.00
23261;BME280;11799;47.740;-3.390;2023-04-27T12:30:43;101159.25;;;15.19;100.00
23261;BME280;11799;47.740;-3.390;2023-04-27T12:33:09;101150.00;;;15.24;100.00
23261;BME280;11799;47.740;-3.390;2023-04-27T12:35:35;101155.75;;;15.38;100.00
23261;BME280;11799;47.740;-3.390;2023-04-27T12:38:01;101154.19;;;15.45;100.00
23261;BME280;11799;47.740;-3.390;2023-04-27T12:40:28;101162.75;;;15.49;100.00
23261;BME280;11799;47.740;-3.390;2023-04-27T12:42:53;101175.34;;;15.47;100.00